Time;durP1;ratioP1;P1;durP2;ratioP2;P2;SDS_P1;SDS_P2;PMS_P1;PMS_P2;Temp;Humidity;BMP_temperature;BMP_pressure;BME280_temperature;BME280_humidity;BME280_pressure;Samples;Min_cycle;Max_cycle;Signal;HPM_P1;HPM_P2
2024/01/04 00:00:29;;;;;;;20.50;8.48;;;;;;;7.37;100.00;99228.63;5013992;28;20141;-79
2024/01/04 00:02:54;;;;;;;12.98;5.90;;;;;;;7.35;100.00;99227.22;5031842;28;20440;-80
2024/01/04 00:05:19;;;;;;;12.27;4.95;;;;;;;7.31;100.00;99226.09;5031758;28;20061;-79
2024/01/04 00:07:45;;;;;;;7.97;4.20;;;;;;;7.32;100.00;99233.03;5031687;28;20056;-79
2024/01/04 00:10:13;;;;;;;15.95;5.10;;;;;;;7.32;100.00;99244.47;5031691;28;20052;-79
2024/01/04 00:12:38;;;;;;;7.82;4.43;;;;;;;7.33;100.00;99261.22;5031145;28;20478;-80
2024/01/04 00:15:05;;;;;;;11.45;3.92;;;;;;;7.34;100.00;99263.66;5013779;28;20033;-79
2024/01/04 00:17:31;;;;;;;5.88;3.00;;;;;;;7.33;100.00;99263.88;5031582;28;20498;-78
2024/01/04 00:19:56;;;;;;;6.80;3.35;;;;;;;7.24;100.00;99267.94;5013582;28;20036;-80
2024/01/04 00:22:22;;;;;;;6.78;3.17;;;;;;;7.21;100.00;99274.50;5031476;28;20034;-78
2024/01/04 00:24:48;;;;;;;13.88;2.95;;;;;;;7.20;100.00;99282.69;5031361;28;20051;-79
2024/01/04 00:27:13;;;;;;;8.00;2.97;;;;;;;7.26;100.00;99293.25;5031363;28;20038;-79
2024/01/04 00:29:39;;;;;;;11.95;3.20;;;;;;;7.20;100.00;99293.34;5031170;28;20025;-79
2024/01/04 00:32:04;;;;;;;7.68;3.08;;;;;;;7.20;100.00;99303.97;5031319;28;20036;-80
2024/01/04 00:34:29;;;;;;;4.45;2.80;;;;;;;7.27;100.00;99302.84;5031357;28;20026;-80
2024/01/04 00:36:57;;;;;;;8.15;3.13;;;;;;;7.22;100.00;99318.66;5031126;28;20128;-78
2024/01/04 00:39:24;;;;;;;5.22;2.83;;;;;;;7.30;100.00;99328.16;5013440;28;20036;-78
2024/01/04 00:41:53;;;;;;;4.15;2.72;;;;;;;7.32;100.00;99320.75;5031287;28;20044;-79
2024/01/04 00:44:18;;;;;;;7.82;3.38;;;;;;;7.30;100.00;99336.94;5031487;28;20096;-79
2024/01/04 00:46:44;;;;;;;8.75;3.00;;;;;;;7.23;100.00;99330.09;5013490;28;20033;-79
2024/01/04 00:49:09;;;;;;;5.20;2.55;;;;;;;7.27;100.00;99342.72;5031353;28;20164;-80
2024/01/04 00:51:35;;;;;;;10.45;3.20;;;;;;;7.30;100.00;99352.06;5013614;28;20030;-80
2024/01/04 00:54:00;;;;;;;15.57;2.88;;;;;;;7.26;100.00;99364.22;5031268;28;20425;-79
2024/01/04 00:56:33;;;;;;;8.52;3.22;;;;;;;7.25;100.00;99359.94;5031186;28;20113;-81
2024/01/04 00:59:02;;;;;;;;;;;;;;;7.29;100.00;99366.41;5031597;28;20021;-80
2024/01/04 01:01:29;;;;;;;6.60;2.55;;;;;;;7.29;100.00;99372.53;5013237;28;19959;-79
2024/01/04 01:03:54;;;;;;;6.47;2.50;;;;;;;7.29;100.00;99377.03;5031029;28;20128;-80
2024/01/04 01:06:20;;;;;;;4.72;2.70;;;;;;;7.30;100.00;99391.97;5031046;28;20045;-80
2024/01/04 01:08:46;;;;;;;6.30;2.60;;;;;;;7.32;100.00;99392.53;5030958;28;20068;-80
2024/01/04 01:11:11;;;;;;;8.15;2.88;;;;;;;7.26;100.00;99393.47;5013341;28;20033;-81
2024/01/04 01:13:36;;;;;;;4.32;2.20;;;;;;;7.29;100.00;99403.63;5013223;28;20037;-80
2024/01/04 01:16:02;;;;;;;8.02;2.80;;;;;;;7.21;100.00;99398.63;5030785;28;20074;-80
2024/01/04 01:18:28;;;;;;;8.43;3.42;;;;;;;7.19;100.00;99406.81;5030702;28;20548;-81
2024/01/04 01:20:54;;;;;;;4.60;2.70;;;;;;;7.15;100.00;99403.00;5012984;28;20382;-80
2024/01/04 01:23:19;;;;;;;7.07;2.72;;;;;;;7.18;100.00;99409.72;5030554;28;20092;-80
2024/01/04 01:25:45;;;;;;;9.05;3.58;;;;;;;7.18;100.00;99412.38;5032884;28;20029;-80
2024/01/04 01:28:10;;;;;;;7.50;2.70;;;;;;;7.14;100.00;99420.00;5034185;28;20038;-80
2024/01/04 01:30:35;;;;;;;7.60;3.08;;;;;;;7.11;100.00;99423.09;5034098;28;20021;-79
2024/01/04 01:33:01;;;;;;;7.25;3.20;;;;;;;7.14;100.00;99428.78;5033853;28;20429;-80
2024/01/04 01:35:26;;;;;;;5.32;2.53;;;;;;;7.17;100.00;99434.66;5033874;28;20053;-80
2024/01/04 01:37:51;;;;;;;9.55;2.83;;;;;;;7.16;100.00;99439.19;5033896;28;20026;-80
2024/01/04 01:40:17;;;;;;;7.22;2.60;;;;;;;7.16;100.00;99447.16;5016136;28;20068;-81
2024/01/04 01:42:47;;;;;;;7.75;2.60;;;;;;;7.22;100.00;99454.22;5016175;28;20475;-78
2024/01/04 01:45:12;;;;;;;9.63;2.65;;;;;;;7.23;100.00;99457.69;5033855;28;20048;-79
2024/01/04 01:47:38;;;;;;;7.60;2.92;;;;;;;7.29;100.00;99465.59;5033844;28;20025;-77
2024/01/04 01:50:04;;;;;;;11.13;2.78;;;;;;;7.25;100.00;99476.91;5015976;28;20390;-79
2024/01/04 01:52:30;;;;;;;6.75;2.60;;;;;;;7.29;100.00;99478.88;5033634;28;20037;-79
2024/01/04 01:54:56;;;;;;;8.65;2.55;;;;;;;7.24;100.00;99473.44;5033849;28;20037;-80
2024/01/04 01:57:21;;;;;;;5.18;2.92;;;;;;;7.24;100.00;99480.59;5015938;28;20116;-80
2024/01/04 01:59:46;;;;;;;9.52;2.58;;;;;;;7.24;100.00;99488.56;5015950;28;20169;-81
2024/01/04 02:02:12;;;;;;;9.38;3.20;;;;;;;7.24;100.00;99484.06;5016046;28;20029;-81
2024/01/04 02:04:39;;;;;;;8.35;2.90;;;;;;;7.23;100.00;99492.25;5033526;28;20033;-82
2024/01/04 02:07:06;;;;;;;11.15;3.00;;;;;;;7.25;100.00;99495.53;5033545;28;20044;-81
2024/01/04 02:09:32;;;;;;;5.78;2.70;;;;;;;7.21;100.00;99483.69;5033624;28;20478;-80
2024/01/04 02:12:10;;;;;;;6.72;2.60;;;;;;;7.17;100.00;99503.78;5033445;28;20044;-80
2024/01/04 02:14:36;;;;;;;8.00;2.75;;;;;;;7.09;100.00;99502.25;5033438;28;20438;-80
2024/01/04 02:17:01;;;;;;;5.03;2.58;;;;;;;6.99;100.00;99521.41;5033349;28;20107;-80
2024/01/04 02:19:27;;;;;;;12.50;3.70;;;;;;;6.92;100.00;99517.19;5015628;28;20402;-80
2024/01/04 02:21:53;;;;;;;9.40;3.40;;;;;;;6.87;100.00;99515.19;5015709;28;20371;-79
2024/01/04 02:24:18;;;;;;;12.98;4.10;;;;;;;6.95;100.00;99528.19;5033342;28;20025;-80
2024/01/04 02:26:43;;;;;;;10.40;2.92;;;;;;;6.98;100.00;99524.28;5015457;28;20372;-80
2024/01/04 02:29:09;;;;;;;8.55;2.92;;;;;;;6.98;100.00;99532.25;5033400;28;20108;-80
2024/01/04 02:31:34;;;;;;;11.65;3.42;;;;;;;7.08;100.00;99528.03;5015428;28;20442;-80
2024/01/04 02:34:00;;;;;;;10.52;4.00;;;;;;;7.08;100.00;99535.19;5033245;28;20172;-81
2024/01/04 02:36:26;;;;;;;9.93;3.55;;;;;;;7.08;100.00;99543.97;5032677;28;20037;-80
2024/01/04 02:38:51;;;;;;;12.25;3.63;;;;;;;7.08;100.00;99543.16;5015366;28;20131;-80
2024/01/04 02:41:17;;;;;;;9.55;3.50;;;;;;;7.05;100.00;99533.78;5015262;28;20061;-80
2024/01/04 02:43:42;;;;;;;11.02;4.30;;;;;;;7.11;100.00;99548.03;5015301;28;20112;-80
2024/01/04 02:46:07;;;;;;;8.73;3.72;;;;;;;7.18;100.00;99550.59;5015163;28;20128;-81
2024/01/04 02:48:32;;;;;;;11.52;3.90;;;;;;;7.14;100.00;99551.03;5015084;28;20025;-81
2024/01/04 02:50:58;;;;;;;12.82;4.00;;;;;;;7.11;100.00;99550.69;5032719;28;20029;-80
2024/01/04 02:53:36;;;;;;;10.13;4.15;;;;;;;7.01;100.00;99550.41;5015091;28;20028;-81
2024/01/04 02:56:04;;;;;;;11.73;4.47;;;;;;;6.98;100.00;99535.72;5032700;28;20044;-81
2024/01/04 02:58:30;;;;;;;12.10;3.38;;;;;;;6.99;100.00;99534.69;5015057;28;20482;-81
2024/01/04 03:00:55;;;;;;;9.73;3.97;;;;;;;7.14;100.00;99545.72;5014854;28;20041;-80
2024/01/04 03:03:21;;;;;;;8.10;3.95;;;;;;;7.28;100.00;99567.66;5015078;28;20482;-80
2024/01/04 03:05:46;;;;;;;9.27;3.67;;;;;;;7.22;100.00;99570.38;5014862;28;20460;-81
2024/01/04 03:08:11;;;;;;;10.82;3.50;;;;;;;7.12;100.00;99573.56;5014827;28;20033;-80
2024/01/04 03:10:37;;;;;;;7.68;4.03;;;;;;;7.05;100.00;99578.97;5014869;28;20033;-80
2024/01/04 03:13:05;;;;;;;7.15;3.70;;;;;;;7.01;100.00;99583.09;5033049;28;20100;-81
2024/01/04 03:15:30;;;;;;;4.63;2.95;;;;;;;7.07;100.00;99578.75;5032382;28;20025;-80
2024/01/04 03:17:56;;;;;;;5.90;2.97;;;;;;;7.10;100.00;99575.63;5032484;28;20406;-80
2024/01/04 03:20:22;;;;;;;7.40;2.83;;;;;;;7.10;100.00;99576.44;5032595;28;20029;-80
2024/01/04 03:22:47;;;;;;;6.78;3.08;;;;;;;7.15;100.00;99595.19;5014856;28;20497;-79
2024/01/04 03:25:12;;;;;;;7.35;2.97;;;;;;;7.18;100.00;99593.13;5014881;28;20462;-80
2024/01/04 03:27:38;;;;;;;7.22;3.97;;;;;;;7.19;100.00;99602.72;5032505;28;20036;-80
2024/01/04 03:30:04;;;;;;;7.65;3.22;;;;;;;7.20;100.00;99604.34;5032287;28;20164;-79
2024/01/04 03:32:29;;;;;;;7.13;2.90;;;;;;;7.21;100.00;99598.00;5032395;28;20033;-81
2024/01/04 03:34:54;;;;;;;7.10;3.47;;;;;;;7.20;100.00;99617.63;5032319;28;20029;-80
2024/01/04 03:37:20;;;;;;;8.32;3.30;;;;;;;7.15;100.00;99615.66;5014447;28;20253;-80
2024/01/04 03:39:45;;;;;;;6.60;3.60;;;;;;;7.15;100.00;99616.47;5032219;28;20026;-81
2024/01/04 03:42:10;;;;;;;8.07;3.28;;;;;;;7.14;100.00;99614.03;5032212;28;20036;-80
2024/01/04 03:44:37;;;;;;;5.28;3.45;;;;;;;7.14;100.00;99620.16;5014489;28;20148;-81
2024/01/04 03:47:04;;;;;;;7.05;3.65;;;;;;;7.08;100.00;99626.38;5013725;28;20474;-81
2024/01/04 03:49:30;;;;;;;8.45;3.88;;;;;;;7.04;100.00;99619.06;5014241;28;20500;-81
2024/01/04 03:51:56;;;;;;;13.25;4.50;;;;;;;7.05;100.00;99637.44;5031943;28;20041;-81
2024/01/04 03:54:21;;;;;;;10.13;4.63;;;;;;;7.01;100.00;99625.63;5014352;28;20033;-81
2024/01/04 03:56:47;;;;;;;9.75;4.40;;;;;;;7.01;100.00;99625.63;5031954;28;20382;-82
2024/01/04 03:59:12;;;;;;;8.15;4.20;;;;;;;6.94;100.00;99630.22;5014154;28;20037;-82
2024/01/04 04:01:45;;;;;;;6.13;3.80;;;;;;;6.96;100.00;99632.66;5031831;28;20033;-81
2024/01/04 04:04:11;;;;;;;11.02;4.22;;;;;;;6.99;100.00;99642.84;5031979;28;20035;-81
2024/01/04 04:06:36;;;;;;;9.45;5.05;;;;;;;7.01;100.00;99643.41;5014495;28;20398;-81
2024/01/04 04:09:02;;;;;;;7.15;4.30;;;;;;;7.02;100.00;99637.06;5031785;28;20028;-82
2024/01/04 04:11:27;;;;;;;7.85;4.53;;;;;;;7.02;100.00;99640.53;5014140;28;20033;-82
2024/01/04 04:13:53;;;;;;;10.27;5.35;;;;;;;6.93;100.00;99633.88;5014108;28;20021;-81
2024/01/04 04:16:19;;;;;;;10.80;5.15;;;;;;;7.10;100.00;99634.94;5013803;28;20133;-82
2024/01/04 04:18:44;;;;;;;6.93;4.53;;;;;;;7.14;100.00;99648.59;5031526;28;20478;-80
2024/01/04 04:21:18;;;;;;;10.18;5.47;;;;;;;7.12;100.00;99654.13;5031694;28;20228;-79
2024/01/04 04:23:47;;;;;;;9.38;4.88;;;;;;;7.13;100.00;99657.59;5013888;28;20076;-80
2024/01/04 04:26:12;;;;;;;7.15;4.03;;;;;;;7.12;100.00;99667.41;5013895;28;20493;-80
2024/01/04 04:28:38;;;;;;;10.20;4.95;;;;;;;7.14;100.00;99673.31;5013523;28;20129;-81
2024/01/04 04:31:03;;;;;;;16.60;5.15;;;;;;;7.09;100.00;99661.72;5031441;28;20033;-81
2024/01/04 04:33:28;;;;;;;10.82;4.30;;;;;;;7.09;100.00;99656.41;5013613;28;20148;-80
2024/01/04 04:35:54;;;;;;;9.63;4.18;;;;;;;7.06;100.00;99668.31;5013680;28;20423;-79
2024/01/04 04:38:19;;;;;;;11.25;4.72;;;;;;;7.03;100.00;99665.28;5031311;28;20433;-80
2024/01/04 04:40:44;;;;;;;14.55;4.82;;;;;;;7.06;100.00;99676.28;5031135;28;20485;-81
2024/01/04 04:43:10;;;;;;;11.68;5.28;;;;;;;7.00;100.00;99687.78;5031330;28;20032;-82
2024/01/04 04:45:35;;;;;;;13.25;5.88;;;;;;;7.01;100.00;99689.41;5031221;28;20030;-82
2024/01/04 04:48:00;;;;;;;9.00;4.72;;;;;;;6.76;100.00;99640.81;5031218;28;20122;-83
2024/01/04 04:50:26;;;;;;;10.02;4.65;;;;;;;7.02;100.00;99691.03;5031186;28;20028;-81
2024/01/04 04:52:51;;;;;;;9.98;5.38;;;;;;;6.94;100.00;99696.63;5031163;28;20108;-82
2024/01/04 04:55:16;;;;;;;11.95;5.13;;;;;;;6.90;100.00;99691.97;5031221;28;20125;-81
2024/01/04 04:57:42;;;;;;;12.05;5.40;;;;;;;6.94;100.00;99703.78;5031050;28;20154;-82
2024/01/04 05:00:08;;;;;;;11.73;5.22;;;;;;;6.99;100.00;99703.94;5033866;28;20030;-81
2024/01/04 05:02:33;;;;;;;11.77;5.97;;;;;;;6.94;100.00;99704.63;5034551;28;20517;-81
2024/01/04 05:04:58;;;;;;;9.73;4.93;;;;;;;6.91;100.00;99698.91;5016714;28;20495;-80
2024/01/04 05:07:24;;;;;;;10.68;4.97;;;;;;;6.88;100.00;99697.50;5017060;28;20017;-80
2024/01/04 05:09:49;;;;;;;12.98;5.22;;;;;;;6.90;100.00;99716.69;5034504;28;20036;-81
2024/01/04 05:12:14;;;;;;;8.52;4.88;;;;;;;6.86;100.00;99709.38;5016577;28;20018;-80
2024/01/04 05:14:40;;;;;;;12.80;5.72;;;;;;;6.87;100.00;99711.81;5034462;28;20081;-79
2024/01/04 05:17:05;;;;;;;9.93;5.25;;;;;;;6.89;100.00;99715.06;5016472;28;20087;-82
2024/01/04 05:19:30;;;;;;;10.98;4.72;;;;;;;6.88;100.00;99726.72;5016560;28;20029;-80
2024/01/04 05:21:56;;;;;;;11.23;5.57;;;;;;;6.80;100.00;99724.34;5034458;28;20733;-79
2024/01/04 05:24:21;;;;;;;7.90;4.55;;;;;;;6.87;100.00;99730.41;5016616;28;20443;-78
2024/01/04 05:26:47;;;;;;;8.60;5.40;;;;;;;6.87;100.00;99737.56;5034268;28;20041;-81
2024/01/04 05:29:12;;;;;;;9.93;5.47;;;;;;;6.87;100.00;99735.72;5034283;28;20441;-80
2024/01/04 05:31:38;;;;;;;11.23;5.88;;;;;;;6.82;100.00;99730.25;5034418;28;20025;-82
2024/01/04 05:34:03;;;;;;;14.02;6.38;;;;;;;6.83;100.00;99732.69;5034016;28;20057;-79
2024/01/04 05:36:30;;;;;;;11.20;7.03;;;;;;;6.83;100.00;99742.50;5034035;28;20030;-81
2024/01/04 05:38:55;;;;;;;14.13;6.10;;;;;;;6.84;100.00;99738.81;5034044;28;20033;-81
2024/01/04 05:41:20;;;;;;;14.90;6.95;;;;;;;6.87;100.00;99746.34;5034027;28;20426;-80
2024/01/04 05:43:46;;;;;;;14.98;6.72;;;;;;;6.81;100.00;99737.41;5033995;28;20108;-81
2024/01/04 05:46:11;;;;;;;13.93;6.65;;;;;;;6.87;100.00;99751.66;5016113;28;20120;-80
2024/01/04 05:48:37;;;;;;;11.65;6.32;;;;;;;6.88;100.00;99758.59;5033966;28;20056;-80
2024/01/04 05:51:03;;;;;;;11.82;6.00;;;;;;;6.77;100.00;99752.16;5033943;28;20064;-80
2024/01/04 05:53:28;;;;;;;9.95;5.30;;;;;;;6.80;100.00;99753.56;5033754;28;20032;-80
2024/01/04 05:55:54;;;;;;;9.93;5.32;;;;;;;6.83;100.00;99763.75;5033800;28;20041;-82
2024/01/04 05:58:19;;;;;;;8.23;4.88;;;;;;;6.78;100.00;99768.91;5033773;28;20036;-82
2024/01/04 06:00:44;;;;;;;7.82;5.05;;;;;;;6.71;100.00;99784.91;5015883;28;20044;-81
2024/01/04 06:03:10;;;;;;;10.07;4.28;;;;;;;6.69;100.00;99778.19;5033621;28;20110;-81
2024/01/04 06:05:35;;;;;;;9.27;4.40;;;;;;;6.62;100.00;99777.38;5033721;28;20445;-81
2024/01/04 06:08:00;;;;;;;6.78;3.55;;;;;;;6.62;100.00;99788.00;5015992;28;20033;-80
2024/01/04 06:10:26;;;;;;;8.32;3.88;;;;;;;6.58;100.00;99784.16;5015150;28;20032;-81
2024/01/04 06:12:51;;;;;;;7.88;3.85;;;;;;;6.61;100.00;99783.72;5033399;28;20044;-81
2024/01/04 06:15:16;;;;;;;7.60;3.00;;;;;;;6.53;100.00;99800.72;5033647;28;20386;-81
2024/01/04 06:17:42;;;;;;;5.32;3.10;;;;;;;6.53;100.00;99795.44;5033455;28;20063;-81
2024/01/04 06:20:07;;;;;;;11.52;3.20;;;;;;;6.50;100.00;99801.97;5033489;28;20367;-81
2024/01/04 06:22:33;;;;;;;5.03;3.40;;;;;;;6.51;100.00;99802.78;5015526;28;20367;-81
2024/01/04 06:24:58;;;;;;;7.93;4.40;;;;;;;6.51;100.00;99787.66;5015682;28;20359;-81
2024/01/04 06:27:23;;;;;;;7.65;3.65;;;;;;;6.53;100.00;99808.69;5015640;28;20033;-81
2024/01/04 06:29:49;;;;;;;7.63;4.32;;;;;;;6.52;100.00;99793.78;5015595;28;20556;-80
2024/01/04 06:32:14;;;;;;;10.32;4.88;;;;;;;6.59;100.00;99815.00;5015577;28;20480;-79
2024/01/04 06:34:40;;;;;;;8.60;4.05;;;;;;;6.55;100.00;99811.16;5033517;28;20029;-82
2024/01/04 06:37:05;;;;;;;6.90;4.55;;;;;;;6.58;100.00;99822.16;5033143;28;20059;-84
2024/01/04 06:39:30;;;;;;;7.55;3.90;;;;;;;6.50;100.00;99804.63;5033346;28;20026;-84
2024/01/04 06:41:56;;;;;;;8.73;4.07;;;;;;;6.52;100.00;99815.03;5015868;28;20500;-84
2024/01/04 06:44:22;;;;;;;7.63;4.22;;;;;;;6.45;100.00;99825.72;5033350;28;20034;-85
2024/01/04 06:46:47;;;;;;;6.80;3.92;;;;;;;6.39;100.00;99818.59;5015702;28;20040;-84
2024/01/04 06:49:13;;;;;;;9.45;4.03;;;;;;;6.45;100.00;99831.00;5033179;28;20029;-83
2024/01/04 06:51:38;;;;;;;7.28;4.10;;;;;;;6.41;100.00;99837.78;5033013;28;20021;-82
2024/01/04 06:54:03;;;;;;;12.18;5.72;;;;;;;6.40;100.00;99838.81;5015272;28;20033;-80
2024/01/04 06:56:29;;;;;;;7.57;4.40;;;;;;;6.43;100.00;99843.69;5032931;28;20032;-82
2024/01/04 06:58:55;;;;;;;10.50;4.28;;;;;;;6.32;100.00;99847.00;5032995;28;20029;-83
2024/01/04 07:01:20;;;;;;;9.48;5.10;;;;;;;6.34;100.00;99852.91;5032711;28;20386;-86
2024/01/04 07:03:46;;;;;;;12.82;4.72;;;;;;;6.33;100.00;99856.59;5033107;28;20029;-84
2024/01/04 07:06:12;;;;;;;8.07;4.60;;;;;;;6.37;100.00;99851.69;5032867;28;20438;-83
2024/01/04 07:08:37;;;;;;;11.23;4.63;;;;;;;6.36;100.00;99858.00;5014904;28;20080;-82
2024/01/04 07:11:05;;;;;;;8.88;3.97;;;;;;;6.36;100.00;99860.66;5014809;28;20084;-81
2024/01/04 07:13:30;;;;;;;7.80;3.90;;;;;;;6.36;100.00;99860.66;5032695;28;20036;-83
2024/01/04 07:15:55;;;;;;;7.93;4.60;;;;;;;6.41;100.00;99868.81;5032542;28;20029;-82
2024/01/04 07:18:21;;;;;;;8.00;4.22;;;;;;;6.39;100.00;99871.69;5032440;28;20161;-83
2024/01/04 07:20:46;;;;;;;9.63;4.30;;;;;;;6.38;100.00;99863.94;5014769;28;20029;-82
2024/01/04 07:23:12;;;;;;;10.32;4.43;;;;;;;6.41;100.00;99874.94;5031204;28;20021;-81
2024/01/04 07:25:37;;;;;;;9.00;3.97;;;;;;;6.36;100.00;99876.59;5032298;28;20036;-82
2024/01/04 07:28:03;;;;;;;10.43;4.03;;;;;;;6.35;100.00;99886.38;5032298;28;20381;-81
2024/01/04 07:30:29;;;;;;;7.25;4.18;;;;;;;6.35;100.00;99891.69;5014591;28;20029;-81
2024/01/04 07:32:54;;;;;;;9.85;4.30;;;;;;;6.39;100.00;99900.91;5032054;28;20355;-80
2024/01/04 07:35:23;;;;;;;11.98;4.70;;;;;;;6.41;100.00;99911.31;5014274;28;20034;-80
2024/01/04 07:37:48;;;;;;;8.30;3.85;;;;;;;6.45;100.00;99902.72;5031909;28;20033;-80
2024/01/04 07:40:14;;;;;;;11.40;4.32;;;;;;;6.49;100.00;99914.53;5031794;28;20033;-80
2024/01/04 07:42:40;;;;;;;7.07;3.97;;;;;;;6.51;100.00;99904.53;5014288;28;20112;-80
2024/01/04 07:45:05;;;;;;;11.15;4.13;;;;;;;6.48;100.00;99904.94;5031867;28;20021;-80
2024/01/04 07:47:31;;;;;;;12.30;4.22;;;;;;;6.53;100.00;99920.25;5031944;28;20029;-80
2024/01/04 07:49:56;;;;;;;9.23;5.07;;;;;;;6.56;100.00;99914.50;5031862;28;20071;-80
2024/01/04 07:52:21;;;;;;;7.43;4.20;;;;;;;6.56;100.00;99913.69;5013818;28;20127;-81
2024/01/04 07:54:47;;;;;;;10.93;4.30;;;;;;;6.60;100.00;99920.22;5013855;28;20025;-81
2024/01/04 07:57:13;;;;;;;11.02;4.50;;;;;;;6.64;100.00;99942.66;5031646;28;20033;-81
2024/01/04 07:59:38;;;;;;;10.80;4.25;;;;;;;6.64;100.00;99942.66;5031982;28;20029;-81
2024/01/04 08:02:03;;;;;;;13.35;4.90;;;;;;;6.65;100.00;99945.13;5014028;28;20034;-80
2024/01/04 08:04:29;;;;;;;12.32;4.63;;;;;;;6.67;100.00;99944.94;5014341;28;20056;-81
2024/01/04 08:06:55;;;;;;;12.15;4.53;;;;;;;6.66;100.00;99945.94;5031724;28;20065;-81
2024/01/04 08:09:21;;;;;;;12.30;4.47;;;;;;;6.73;100.00;99947.53;5031497;28;20025;-81
2024/01/04 08:11:46;;;;;;;17.52;5.90;;;;;;;6.72;100.00;99943.25;5031553;28;20334;-81
2024/01/04 08:14:12;;;;;;;13.90;5.60;;;;;;;6.68;100.00;99941.25;5031715;28;20605;-82
2024/01/04 08:16:38;;;;;;;15.35;6.85;;;;;;;6.72;100.00;99942.44;5031463;28;20108;-81
2024/01/04 08:19:03;;;;;;;17.30;6.40;;;;;;;6.66;100.00;99944.09;5031317;28;20029;-82
2024/01/04 08:21:29;;;;;;;11.43;6.00;;;;;;;6.66;100.00;99946.75;5031531;28;20039;-81
2024/01/04 08:23:54;;;;;;;11.30;5.88;;;;;;;6.67;100.00;99948.41;5031639;28;20077;-83
2024/01/04 08:26:20;;;;;;;11.18;5.13;;;;;;;6.74;100.00;99946.53;5031652;28;20025;-81
2024/01/04 08:28:45;;;;;;;12.93;6.30;;;;;;;6.79;100.00;99962.63;5031469;28;20042;-81
2024/01/04 08:31:11;;;;;;;11.77;6.10;;;;;;;6.77;100.00;99953.25;5031541;28;20032;-82
2024/01/04 08:33:36;;;;;;;12.38;5.07;;;;;;;6.85;100.00;99963.63;5031557;28;20116;-80
2024/01/04 08:36:02;;;;;;;11.07;5.18;;;;;;;6.92;100.00;99972.38;5031532;28;20030;-80
2024/01/04 08:38:29;;;;;;;9.88;4.82;;;;;;;6.96;100.00;99970.97;5031638;28;20116;-81
2024/01/04 08:40:54;;;;;;;9.40;5.25;;;;;;;6.97;100.00;99958.47;5031602;28;20425;-80
2024/01/04 08:43:20;;;;;;;10.05;4.50;;;;;;;7.08;100.00;99971.91;5031340;28;20026;-81
2024/01/04 08:45:45;;;;;;;8.40;3.67;;;;;;;7.09;100.00;99962.09;5031347;28;20057;-81
2024/01/04 08:48:11;;;;;;;5.93;3.05;;;;;;;7.07;100.00;99972.94;5031187;28;20034;-79
2024/01/04 08:50:36;;;;;;;14.18;3.20;;;;;;;6.96;100.00;99978.94;5013637;28;20478;-76
2024/01/04 08:53:01;;;;;;;7.47;3.10;;;;;;;6.93;100.00;99981.16;5031227;28;20120;-76
2024/01/04 08:55:27;;;;;;;4.75;3.60;;;;;;;6.88;100.00;99989.78;5013515;28;20029;-77
2024/01/04 08:57:52;;;;;;;4.93;2.97;;;;;;;6.83;100.00;99981.63;5013483;28;20032;-78
2024/01/04 09:00:18;;;;;;;5.45;3.33;;;;;;;6.79;100.00;99975.09;5013877;28;20459;-78
2024/01/04 09:02:45;;;;;;;5.35;2.97;;;;;;;6.85;100.00;99990.19;5013457;28;20411;-78
2024/01/04 09:05:11;;;;;;;4.43;2.85;;;;;;;6.94;100.00;99996.94;5013509;28;20470;-77
2024/01/04 09:07:36;;;;;;;6.40;2.92;;;;;;;6.96;100.00;99988.75;5030981;28;20041;-77
2024/01/04 09:10:02;;;;;;;4.63;2.55;;;;;;;7.03;100.00;100006.28;5031097;28;20539;-78
2024/01/04 09:12:27;;;;;;;4.63;3.33;;;;;;;7.08;100.00;99995.81;5013615;28;20044;-77
2024/01/04 09:14:53;;;;;;;8.82;3.53;;;;;;;7.12;100.00;100006.84;5013504;28;20398;-78
2024/01/04 09:17:19;;;;;;;6.65;3.30;;;;;;;7.13;100.00;100006.63;5031128;28;20033;-78
2024/01/04 09:19:46;;;;;;;4.25;2.72;;;;;;;7.13;100.00;100001.31;5013114;28;20064;-79
2024/01/04 09:22:11;;;;;;;5.65;3.20;;;;;;;7.17;100.00;100028.28;5013140;28;20433;-76
2024/01/04 09:24:36;;;;;;;4.07;2.92;;;;;;;7.14;100.00;100008.25;5013386;28;20064;-78
2024/01/04 09:27:02;;;;;;;3.90;2.65;;;;;;;6.99;100.00;100010.41;5013306;28;20096;-78
2024/01/04 09:29:28;;;;;;;7.60;3.00;;;;;;;6.98;100.00;100031.88;5013222;28;20033;-77
2024/01/04 09:31:55;;;;;;;3.53;2.55;;;;;;;6.91;100.00;100026.56;5030829;28;20026;-78
2024/01/04 09:34:20;;;;;;;3.45;2.40;;;;;;;6.93;100.00;100037.78;5013021;28;20029;-79
2024/01/04 09:36:46;;;;;;;4.93;2.50;;;;;;;6.81;100.00;100034.97;5030672;28;20026;-78
2024/01/04 09:39:17;;;;;;;3.80;2.38;;;;;;;6.79;100.00;100038.88;5030688;28;20033;-77
2024/01/04 09:41:47;;;;;;;5.75;2.40;;;;;;;6.78;100.00;100042.56;5030716;28;20429;-79
2024/01/04 09:44:13;;;;;;;3.63;1.75;;;;;;;6.72;100.00;100051.38;5030337;28;20030;-78
2024/01/04 09:46:40;;;;;;;3.30;2.22;;;;;;;6.68;100.00;100042.19;5014982;28;20056;-79
2024/01/04 09:49:07;;;;;;;2.58;2.03;;;;;;;6.77;100.00;100059.53;5016178;28;20601;-78
2024/01/04 09:51:34;;;;;;;3.53;2.15;;;;;;;6.77;100.00;100062.19;5034073;28;20025;-77
2024/01/04 09:54:00;;;;;;;3.83;2.00;;;;;;;6.76;100.00;100076.47;5033917;28;20029;-77
2024/01/04 09:56:27;;;;;;;3.03;2.13;;;;;;;6.75;100.00;100067.69;5033719;28;20108;-77
2024/01/04 09:58:53;;;;;;;3.92;2.00;;;;;;;6.70;100.00;100079.97;5033849;28;20029;-79
2024/01/04 10:01:23;;;;;;;4.13;1.83;;;;;;;6.75;100.00;100078.31;5033749;28;20030;-77
2024/01/04 10:03:49;;;;;;;2.53;1.70;;;;;;;6.68;100.00;100082.03;5033823;28;20057;-78
2024/01/04 10:06:29;;;;;;;1.88;1.75;;;;;;;6.74;100.00;100086.50;5033703;28;20057;-79
2024/01/04 10:09:28;;;;;;;3.38;1.83;;;;;;;6.78;100.00;100087.72;5033695;28;20092;-79
2024/01/04 10:11:56;;;;;;;2.30;1.70;;;;;;;6.73;100.00;100085.69;5007921;28;20061;-78
2024/01/04 10:14:24;;;;;;;2.65;1.60;;;;;;;6.70;100.00;100090.59;5033558;28;20486;-79
2024/01/04 10:16:49;;;;;;;1.65;1.40;;;;;;;6.64;100.00;100088.75;5033564;28;20109;-78
2024/01/04 10:19:15;;;;;;;2.45;2.25;;;;;;;6.68;100.00;100088.16;5033676;28;20533;-77
2024/01/04 10:21:40;;;;;;;4.50;2.17;;;;;;;6.75;100.00;100098.75;5033484;28;20104;-77
2024/01/04 10:24:05;;;;;;;2.08;1.88;;;;;;;6.75;100.00;100080.97;5033502;28;20033;-78
2024/01/04 10:26:32;;;;;;;3.70;1.70;;;;;;;6.78;100.00;100093.03;5015705;28;20474;-78
2024/01/04 10:29:00;;;;;;;3.95;2.13;;;;;;;6.77;100.00;100086.91;5015717;28;20032;-78
2024/01/04 10:31:26;;;;;;;4.55;2.65;;;;;;;6.94;100.00;100089.94;5033451;28;20040;-78
2024/01/04 10:33:59;;;;;;;4.72;2.88;;;;;;;7.06;100.00;100098.88;5033462;28;20742;-77
2024/01/04 10:36:28;;;;;;;5.40;3.05;;;;;;;7.10;100.00;100092.13;5033253;28;20526;-80
2024/01/04 10:39:06;;;;;;;6.30;2.70;;;;;;;7.18;100.00;100093.72;5033284;28;20594;-80
2024/01/04 10:41:32;;;;;;;4.43;2.40;;;;;;;7.17;100.00;100091.28;5015560;28;20044;-79
2024/01/04 10:44:05;;;;;;;5.28;2.70;;;;;;;7.15;100.00;100096.81;5033127;28;20105;-79
2024/01/04 10:46:34;;;;;;;6.32;2.88;;;;;;;7.22;100.00;100110.88;5015454;28;20033;-79
2024/01/04 10:49:00;;;;;;;5.93;2.83;;;;;;;7.27;100.00;100107.63;5015297;28;20060;-79
2024/01/04 10:51:29;;;;;;;4.72;2.80;;;;;;;7.33;100.00;100104.13;5033061;28;20065;-79
2024/01/04 10:53:59;;;;;;;3.17;1.98;;;;;;;7.44;100.00;100101.59;5032947;28;20029;-80
2024/01/04 10:56:27;;;;;;;4.63;2.58;;;;;;;7.50;100.00;100110.56;5032731;28;20064;-79
2024/01/04 10:58:54;;;;;;;3.17;2.50;;;;;;;7.52;100.00;100113.00;5032934;28;20363;-79
2024/01/04 11:01:20;;;;;;;6.30;2.80;;;;;;;7.41;100.00;100114.50;5015159;28;20033;-79
2024/01/04 11:03:47;;;;;;;7.32;2.65;;;;;;;7.43;100.00;100117.78;5015158;28;20393;-80
2024/01/04 11:06:14;;;;;;;7.68;3.83;;;;;;;7.36;100.00;100103.69;5015101;28;20030;-79
2024/01/04 11:08:40;;;;;;;5.47;3.47;;;;;;;7.41;100.00;100117.16;5032827;28;20033;-81
2024/01/04 11:11:07;;;;;;;3.95;2.90;;;;;;;7.54;100.00;100114.47;5032757;28;20021;-78
2024/01/04 11:13:33;;;;;;;3.50;1.88;;;;;;;7.59;100.00;100121.81;5032719;28;20073;-79
2024/01/04 11:16:04;;;;;;;5.78;2.40;;;;;;;7.48;100.00;100112.63;5032575;28;20029;-79
2024/01/04 11:18:57;;;;;;;3.78;2.28;;;;;;;7.46;100.00;100122.66;5032559;28;20041;-78
2024/01/04 11:22:02;;;;;;;2.35;2.13;;;;;;;7.56;100.00;100122.22;5032619;28;20087;-79
2024/01/04 11:24:37;;;;;;;5.93;2.92;;;;;;;7.55;100.00;100116.09;5018303;28;20554;-79